createdAt,value
2023-01-20T00:02:27.114Z,97245.97
2023-01-20T00:06:44.688Z,97236.66
2023-01-20T00:11:13.089Z,97237.81
2023-01-20T00:15:30.573Z,97231.84
2023-01-20T00:19:48.122Z,97236.38
2023-01-20T00:24:06.392Z,97247.09
2023-01-20T00:28:23.901Z,97225.41
2023-01-20T00:32:45.190Z,97226.66
2023-01-20T00:37:02.718Z,97242.03
2023-01-20T00:41:20.548Z,97245.34
2023-01-20T00:45:38.082Z,97233.63
2023-01-20T00:49:55.920Z,97245.66
2023-01-20T00:54:13.565Z,97248.16
2023-01-20T00:58:31.205Z,97235.50
2023-01-20T01:02:48.660Z,97246.91
2023-01-20T01:07:05.891Z,97273.53
2023-01-20T01:11:23.525Z,97271.81
2023-01-20T01:15:49.882Z,97271.13
2023-01-20T01:20:08.068Z,97273.06
2023-01-20T01:24:25.692Z,97270.94
2023-01-20T01:28:43.553Z,97294.44
2023-01-20T01:33:01.229Z,97301.44
2023-01-20T01:37:18.938Z,97305.25
2023-01-20T01:41:36.555Z,97314.13
2023-01-20T01:45:54.702Z,97317.53
2023-01-20T01:50:19.160Z,97322.81
2023-01-20T01:54:42.442Z,97294.72
2023-01-20T01:59:03.037Z,97298.44
2023-01-20T02:03:21.265Z,97300.28
2023-01-20T02:07:39.745Z,97286.41
2023-01-20T02:12:03.186Z,97296.03
2023-01-20T02:16:48.626Z,97310.91
2023-01-20T02:21:44.291Z,97293.25
2023-01-20T02:26:28.566Z,97285.84
2023-01-20T02:32:02.693Z,97289.22
2023-01-20T02:36:32.081Z,97285.13
2023-01-20T02:41:10.185Z,97290.00
2023-01-20T02:45:49.842Z,97307.88
2023-01-20T02:50:43.169Z,97335.13
2023-01-20T02:55:06.488Z,97332.84
2023-01-20T02:59:32.297Z,97308.03
2023-01-20T03:03:55.251Z,97331.56
2023-01-20T03:08:14.484Z,97326.03
2023-01-20T03:12:50.696Z,97334.72
2023-01-20T03:17:08.442Z,97341.88
2023-01-20T03:21:26.759Z,97334.63
2023-01-20T03:25:46.249Z,97337.09
2023-01-20T03:30:16.358Z,97328.63
2023-01-20T03:34:36.968Z,97339.13
2023-01-20T03:38:56.718Z,97362.63
2023-01-20T03:43:27.728Z,97375.19
2023-01-20T03:48:26.924Z,97362.88
2023-01-20T03:52:57.701Z,97360.25
2023-01-20T03:57:21.799Z,97364.38
2023-01-20T04:01:44.391Z,97368.06
2023-01-20T04:06:06.918Z,97370.72
2023-01-20T04:10:27.772Z,97374.22
2023-01-20T04:14:46.611Z,97382.25
2023-01-20T04:19:04.315Z,97386.59
2023-01-20T04:23:48.408Z,97389.91
2023-01-20T04:28:06.280Z,97388.16
2023-01-20T04:32:23.814Z,97398.13
2023-01-20T04:36:42.459Z,97400.97
2023-01-20T04:41:01.572Z,97402.44
2023-01-20T04:45:20.483Z,97412.75
2023-01-20T04:49:38.269Z,97413.00
2023-01-20T04:54:00.136Z,97419.56
2023-01-20T04:58:17.617Z,97418.97
2023-01-20T05:02:35.329Z,97431.00
2023-01-20T05:06:53.118Z,97414.56
2023-01-20T05:11:10.959Z,97425.63
2023-01-20T05:15:28.800Z,97414.19
2023-01-20T05:19:46.548Z,97423.91
2023-01-20T05:24:04.388Z,97428.59
2023-01-20T05:28:22.401Z,97443.75
2023-01-20T05:32:40.035Z,97446.34
2023-01-20T05:36:58.030Z,97446.69
2023-01-20T05:41:15.706Z,97455.41
2023-01-20T05:45:34.003Z,97465.44
2023-01-20T05:49:51.434Z,97467.94
2023-01-20T05:54:09.060Z,97453.28
2023-01-20T05:58:26.547Z,97455.19
2023-01-20T06:02:44.365Z,97467.63
2023-01-20T06:07:01.994Z,97467.31
2023-01-20T06:11:19.858Z,97463.78
2023-01-20T06:15:37.358Z,97467.09
2023-01-20T06:19:55.703Z,97466.59
2023-01-20T06:24:13.197Z,97466.47
2023-01-20T06:28:31.142Z,97475.22
2023-01-20T06:32:48.908Z,97476.53
2023-01-20T06:37:06.570Z,97479.09
2023-01-20T06:41:24.346Z,97481.16
2023-01-20T06:45:42.298Z,97491.78
2023-01-20T06:49:59.785Z,97509.34
2023-01-20T06:54:17.633Z,97501.06
2023-01-20T06:58:35.093Z,97510.00
2023-01-20T07:02:53.047Z,97518.31
2023-01-20T07:07:12.872Z,97514.47
2023-01-20T07:11:31.657Z,97525.44
2023-01-20T07:15:49.149Z,97527.72
2023-01-20T07:20:07.513Z,97533.50
2023-01-20T07:24:25.211Z,97555.41
2023-01-20T07:28:42.887Z,97551.09
2023-01-20T07:33:00.771Z,97556.63
2023-01-20T07:37:18.272Z,97569.63
2023-01-20T07:41:35.844Z,97569.81
2023-01-20T07:45:57.738Z,97564.94
2023-01-20T07:50:15.973Z,97554.84
2023-01-20T07:54:33.622Z,97553.44
2023-01-20T07:58:51.983Z,97564.69
2023-01-20T08:03:09.432Z,97557.03
2023-01-20T08:07:27.047Z,97553.56
2023-01-20T08:11:44.517Z,97569.41
2023-01-20T08:16:09.545Z,97567.25
2023-01-20T08:20:27.231Z,97568.94
2023-01-20T08:24:44.780Z,97583.00
2023-01-20T08:29:09.663Z,97577.28
2023-01-20T08:33:27.436Z,97589.84
2023-01-20T08:37:45.139Z,97585.78
2023-01-20T08:42:02.730Z,97586.06
2023-01-20T08:46:22.135Z,97604.06
2023-01-20T08:50:39.756Z,97614.97
2023-01-20T08:54:58.875Z,97615.38
2023-01-20T08:59:16.600Z,97619.44
2023-01-20T09:03:34.101Z,97626.00
2023-01-20T09:07:51.758Z,97634.03
2023-01-20T09:12:09.416Z,97616.75
2023-01-20T09:16:27.127Z,97619.56
2023-01-20T09:20:44.703Z,97624.16
2023-01-20T09:25:02.848Z,97630.47
2023-01-20T09:29:21.155Z,97631.59
2023-01-20T09:33:39.647Z,97631.66
2023-01-20T09:38:16.061Z,97626.84
2023-01-20T09:43:33.102Z,97625.16
2023-01-20T09:47:53.323Z,97628.44
2023-01-20T09:52:42.795Z,97620.59
2023-01-20T09:57:02.201Z,97617.41
2023-01-20T10:01:55.337Z,97621.88
2023-01-20T10:06:42.960Z,97617.78
2023-01-20T10:11:19.548Z,97606.81
2023-01-20T10:15:40.436Z,97601.78
2023-01-20T10:20:38.968Z,97609.72
2023-01-20T10:25:28.370Z,97609.22
2023-01-20T10:29:52.166Z,97604.81
2023-01-20T10:34:17.401Z,97620.66
2023-01-20T10:38:55.963Z,97610.56
2023-01-20T10:43:16.962Z,97609.03
2023-01-20T10:48:00.416Z,97615.88
2023-01-20T10:52:58.554Z,97620.38
2023-01-20T10:57:16.385Z,97627.22
2023-01-20T11:01:35.395Z,97623.34
2023-01-20T11:05:52.996Z,97627.53
2023-01-20T11:10:25.161Z,97615.31
2023-01-20T11:14:43.634Z,97621.00
2023-01-20T11:19:07.622Z,97622.97
2023-01-20T11:23:46.344Z,97610.44
2023-01-20T11:28:06.369Z,97606.38
2023-01-20T11:32:40.344Z,97594.16
2023-01-20T11:37:06.747Z,97590.78
2023-01-20T11:41:31.706Z,97588.25
2023-01-20T11:45:49.249Z,97581.06
2023-01-20T11:50:09.684Z,97578.06
2023-01-20T11:54:30.034Z,97579.91
2023-01-20T11:59:02.028Z,97557.88
2023-01-20T12:04:10.598Z,97567.41
2023-01-20T12:08:50.692Z,97563.78
2023-01-20T12:13:25.096Z,97565.66
2023-01-20T12:18:04.378Z,97550.84
2023-01-20T12:22:32.295Z,97549.03
2023-01-20T12:26:50.403Z,97550.13
2023-01-20T12:31:11.124Z,97558.25
2023-01-20T12:35:39.084Z,97562.50
2023-01-20T12:40:26.855Z,97560.16
2023-01-20T12:44:58.149Z,97574.66
2023-01-20T12:49:34.854Z,97564.09
2023-01-20T12:54:17.114Z,97572.53
2023-01-20T12:58:49.458Z,97559.19
2023-01-20T13:03:32.544Z,97569.13
2023-01-20T13:07:57.306Z,97572.28
2023-01-20T13:12:39.500Z,97582.88
2023-01-20T13:17:13.600Z,97584.84
2023-01-20T13:21:34.911Z,97609.00
2023-01-20T13:25:52.949Z,97600.56
2023-01-20T13:30:50.984Z,97622.00
2023-01-20T13:35:18.222Z,97613.34
2023-01-20T13:39:42.106Z,97607.47
2023-01-20T13:43:59.642Z,97620.56
2023-01-20T13:48:23.772Z,97621.56
2023-01-20T13:52:50.015Z,97634.41
2023-01-20T13:57:20.736Z,97636.47
2023-01-20T14:01:39.601Z,97636.69
2023-01-20T14:06:02.430Z,97627.06
2023-01-20T14:10:20.626Z,97633.25
2023-01-20T14:14:42.315Z,97632.75
2023-01-20T14:19:08.387Z,97639.25
2023-01-20T14:23:35.653Z,97640.88
2023-01-20T14:27:53.484Z,97640.66
2023-01-20T14:32:22.241Z,97639.38
2023-01-20T14:36:40.044Z,97646.69
2023-01-20T14:40:57.645Z,97651.31
2023-01-20T14:45:23.840Z,97641.63
2023-01-20T14:49:43.561Z,97654.25
2023-01-20T14:54:36.922Z,97653.13
2023-01-20T14:58:56.159Z,97646.44
2023-01-20T15:03:20.782Z,97649.06
2023-01-20T15:07:38.550Z,97655.03
2023-01-20T15:12:34.197Z,97651.31
2023-01-20T15:16:53.124Z,97652.59
2023-01-20T15:21:25.529Z,97650.84
2023-01-20T15:25:43.141Z,97644.38
2023-01-20T15:30:26.243Z,97655.75
2023-01-20T15:34:43.671Z,97659.06
2023-01-20T15:39:01.617Z,97657.41
2023-01-20T15:43:19.262Z,97652.34
2023-01-20T15:47:36.901Z,97652.59
2023-01-20T15:51:54.559Z,97647.38
2023-01-20T15:56:21.963Z,97661.91
2023-01-20T16:00:43.836Z,97651.53
2023-01-20T16:05:00.943Z,97645.47
2023-01-20T16:09:30.006Z,97645.72
2023-01-20T16:13:47.885Z,97648.28
2023-01-20T16:18:06.067Z,97654.00
2023-01-20T16:22:23.579Z,97652.56
2023-01-20T16:26:45.933Z,97660.13
2023-01-20T16:31:03.647Z,97660.91
2023-01-20T16:35:23.569Z,97658.47
2023-01-20T16:39:41.594Z,97674.38
2023-01-20T16:43:59.380Z,97670.19
2023-01-20T16:48:17.027Z,97670.47
2023-01-20T16:52:35.372Z,97670.31
2023-01-20T16:56:53.052Z,97673.41
2023-01-20T17:01:13.548Z,97675.19
2023-01-20T17:05:31.160Z,97675.03
2023-01-20T17:09:48.986Z,97679.13
2023-01-20T17:14:09.602Z,97688.28
2023-01-20T17:18:27.076Z,97678.34
2023-01-20T17:22:44.844Z,97683.47
2023-01-20T17:27:02.466Z,97682.13
2023-01-20T17:31:20.090Z,97676.22
2023-01-20T17:35:37.799Z,97675.66
2023-01-20T17:39:55.449Z,97669.16
2023-01-20T17:44:13.660Z,97661.97
2023-01-20T17:48:31.136Z,97662.63
2023-01-20T17:52:48.947Z,97657.88
2023-01-20T17:57:06.593Z,97658.44
2023-01-20T18:01:27.765Z,97654.47
2023-01-20T18:05:45.459Z,97648.69
2023-01-20T18:10:03.054Z,97647.47
2023-01-20T18:14:20.896Z,97660.22
2023-01-20T18:18:43.388Z,97655.03
2023-01-20T18:23:02.082Z,97644.63
2023-01-20T18:27:19.519Z,97638.16
2023-01-20T18:31:37.309Z,97630.34
2023-01-20T18:35:55.545Z,97640.38
2023-01-20T18:40:14.678Z,97642.00
2023-01-20T18:44:32.370Z,97648.09
2023-01-20T18:48:52.185Z,97628.91
2023-01-20T18:53:10.125Z,97620.63
2023-01-20T18:57:27.740Z,97624.72
2023-01-20T19:01:45.336Z,97629.84
2023-01-20T19:06:12.951Z,97622.44
2023-01-20T19:10:30.567Z,97617.69
2023-01-20T19:14:48.226Z,97615.94
2023-01-20T19:19:07.205Z,97623.22
2023-01-20T19:23:24.866Z,97630.41
2023-01-20T19:27:42.338Z,97624.41
2023-01-20T19:31:59.896Z,97627.69
2023-01-20T19:36:19.406Z,97650.28
2023-01-20T19:40:37.357Z,97624.00
2023-01-20T19:44:55.144Z,97623.22
2023-01-20T19:49:13.079Z,97617.47
2023-01-20T19:53:31.546Z,97613.19
2023-01-20T19:57:49.000Z,97619.41
2023-01-20T20:02:12.244Z,97624.97
2023-01-20T20:06:45.640Z,97614.19
2023-01-20T20:11:04.546Z,97614.44
2023-01-20T20:15:22.293Z,97620.03
2023-01-20T20:19:39.882Z,97606.88
2023-01-20T20:24:01.188Z,97605.16
2023-01-20T20:28:19.011Z,97614.28
2023-01-20T20:32:36.813Z,97639.00
2023-01-20T20:36:54.768Z,97635.47
2023-01-20T20:41:12.780Z,97621.47
2023-01-20T20:45:31.046Z,97598.50
2023-01-20T20:49:48.620Z,97596.94
2023-01-20T20:54:06.386Z,97592.16
2023-01-20T20:58:24.113Z,97588.00
2023-01-20T21:02:43.201Z,97601.25
2023-01-20T21:07:01.143Z,97610.06
2023-01-20T21:11:20.606Z,97609.84
2023-01-20T21:15:38.651Z,97616.97
2023-01-20T21:19:56.199Z,97595.13
2023-01-20T21:24:14.058Z,97578.59
2023-01-20T21:28:33.084Z,97582.06
2023-01-20T21:32:50.724Z,97578.22
2023-01-20T21:37:08.855Z,97576.34
2023-01-20T21:41:26.652Z,97568.13
2023-01-20T21:45:44.317Z,97560.13
2023-01-20T21:50:20.549Z,97557.22
2023-01-20T21:54:40.016Z,97559.47
2023-01-20T21:58:57.467Z,97564.06
2023-01-20T22:03:15.023Z,97561.38
2023-01-20T22:07:32.474Z,97557.75
2023-01-20T22:11:50.628Z,97552.16
2023-01-20T22:16:08.277Z,97547.44
2023-01-20T22:20:26.034Z,97547.69
2023-01-20T22:24:43.545Z,97561.34
2023-01-20T22:29:01.583Z,97553.63
2023-01-20T22:33:19.121Z,97541.38
2023-01-20T22:37:36.794Z,97546.94
2023-01-20T22:41:54.836Z,97536.97
2023-01-20T22:46:13.979Z,97545.88
2023-01-20T22:50:34.302Z,97537.00
2023-01-20T22:54:51.993Z,97536.72
2023-01-20T22:59:12.654Z,97527.19
2023-01-20T23:03:31.081Z,97531.06
2023-01-20T23:07:48.683Z,97530.53
2023-01-20T23:12:06.489Z,97526.28
2023-01-20T23:16:24.140Z,97525.25
2023-01-20T23:20:41.942Z,97536.41
2023-01-20T23:24:59.450Z,97536.47
2023-01-20T23:29:17.106Z,97533.66
2023-01-20T23:33:34.781Z,97537.78
2023-01-20T23:37:52.415Z,97539.31
2023-01-20T23:42:10.056Z,97530.53
2023-01-20T23:46:27.632Z,97521.63
2023-01-20T23:50:45.861Z,97539.66
2023-01-20T23:55:03.544Z,97529.97
2023-01-20T23:59:21.187Z,97527.63
